createdAt,value
2022-09-28T00:01:17.639Z,56.42
2022-09-28T00:03:49.171Z,47.38
2022-09-28T00:06:18.721Z,55.85
2022-09-28T00:08:46.262Z,54.60
2022-09-28T00:11:15.545Z,50.28
2022-09-28T00:13:43.158Z,51.83
2022-09-28T00:16:16.791Z,55.50
2022-09-28T00:18:44.691Z,47.75
2022-09-28T00:21:15.304Z,52.78
2022-09-28T00:24:01.236Z,49.15
2022-09-28T00:26:31.336Z,48.50
2022-09-28T00:29:00.472Z,42.88
2022-09-28T00:31:32.781Z,43.95
2022-09-28T00:34:04.902Z,48.28
2022-09-28T00:36:33.244Z,48.92
2022-09-28T00:39:07.060Z,47.75
2022-09-28T00:41:35.158Z,42.25
2022-09-28T00:44:24.474Z,41.60
2022-09-28T00:46:55.191Z,36.85
2022-09-28T00:49:34.114Z,43.22
2022-09-28T00:52:02.966Z,39.47
2022-09-28T00:54:30.116Z,36.85
2022-09-28T00:56:57.888Z,42.03
2022-09-28T00:59:24.850Z,42.30
2022-09-28T01:01:51.924Z,40.75
2022-09-28T01:04:18.949Z,41.37
2022-09-28T01:06:47.136Z,39.40
2022-09-28T01:09:15.447Z,41.85
2022-09-28T01:11:43.056Z,40.30
2022-09-28T01:14:15.058Z,39.30
2022-09-28T01:17:24.484Z,36.83
2022-09-28T01:19:59.437Z,37.35
2022-09-28T01:22:35.444Z,39.47
2022-09-28T01:25:37.732Z,34.38
2022-09-28T01:30:48.808Z,38.47
2022-09-28T01:33:28.721Z,40.80
2022-09-28T01:36:02.614Z,35.72
2022-09-28T01:38:42.868Z,44.28
2022-09-28T01:41:11.265Z,41.13
2022-09-28T01:43:43.109Z,41.55
2022-09-28T01:46:17.930Z,38.40
2022-09-28T01:48:54.949Z,36.05
2022-09-28T01:51:32.440Z,40.90
2022-09-28T01:54:06.698Z,38.10
2022-09-28T01:56:44.497Z,38.70
2022-09-28T01:59:22.495Z,44.25
2022-09-28T02:01:55.302Z,39.50
2022-09-28T02:04:36.160Z,43.60
2022-09-28T02:07:08.724Z,42.53
2022-09-28T02:09:40.349Z,40.17
2022-09-28T02:12:13.716Z,41.42
2022-09-28T02:14:44.894Z,40.25
2022-09-28T02:17:12.449Z,40.88
2022-09-28T02:19:39.980Z,40.20
2022-09-28T02:22:23.105Z,38.08
2022-09-28T02:24:57.800Z,41.10
2022-09-28T02:27:41.172Z,37.53
2022-09-28T02:30:09.571Z,37.60
2022-09-28T02:32:40.591Z,39.85
2022-09-28T02:35:18.155Z,39.55
2022-09-28T02:37:46.320Z,48.58
2022-09-28T02:40:18.386Z,39.72
2022-09-28T02:42:54.928Z,37.35
2022-09-28T02:45:43.632Z,39.17
2022-09-28T02:49:00.133Z,38.97
2022-09-28T02:51:57.995Z,37.55
2022-09-28T02:55:10.497Z,38.53
2022-09-28T02:57:49.539Z,37.25
2022-09-28T03:00:22.908Z,34.78
2022-09-28T03:02:52.269Z,37.83
2022-09-28T03:05:26.461Z,37.22
2022-09-28T03:08:01.489Z,40.22
2022-09-28T03:10:46.595Z,37.60
2022-09-28T03:13:16.516Z,38.25
2022-09-28T03:15:48.654Z,39.80
2022-09-28T03:18:17.280Z,37.67
2022-09-28T03:20:44.985Z,39.45
2022-09-28T03:23:26.909Z,38.80
2022-09-28T03:25:54.518Z,42.15
2022-09-28T03:28:21.955Z,41.33
2022-09-28T03:30:49.284Z,40.03
2022-09-28T03:33:16.262Z,42.10
2022-09-28T03:35:46.880Z,39.47
2022-09-28T03:38:13.916Z,37.33
2022-09-28T03:40:42.806Z,38.72
2022-09-28T03:43:09.692Z,39.03
2022-09-28T03:45:36.646Z,37.95
2022-09-28T03:48:04.002Z,43.55
2022-09-28T03:50:30.690Z,42.28
2022-09-28T03:53:02.254Z,39.92
2022-09-28T03:57:56.104Z,39.67
2022-09-28T04:00:23.105Z,41.95
2022-09-28T04:02:50.031Z,40.65
2022-09-28T04:05:16.637Z,42.22
2022-09-28T04:07:43.277Z,40.35
2022-09-28T04:10:10.148Z,38.45
2022-09-28T04:12:38.812Z,36.97
2022-09-28T04:15:06.158Z,40.45
2022-09-28T04:17:39.179Z,40.05
2022-09-28T04:20:09.083Z,42.92
2022-09-28T04:22:37.723Z,47.38
2022-09-28T04:25:05.012Z,46.75
2022-09-28T04:27:50.557Z,40.53
2022-09-28T04:30:17.934Z,34.92
2022-09-28T04:32:47.127Z,38.28
2022-09-28T04:35:14.347Z,37.45
2022-09-28T04:37:41.618Z,35.90
2022-09-28T04:40:08.959Z,37.35
2022-09-28T04:42:36.683Z,40.15
2022-09-28T04:45:04.860Z,41.47
2022-09-28T04:47:32.478Z,42.95
2022-09-28T04:49:59.322Z,37.40
2022-09-28T04:52:27.241Z,43.65
2022-09-28T04:54:53.856Z,36.28
2022-09-28T04:57:20.960Z,35.90
2022-09-28T04:59:47.945Z,37.92
2022-09-28T05:02:15.192Z,44.05
2022-09-28T05:04:43.188Z,36.15
2022-09-28T05:07:10.727Z,36.85
2022-09-28T05:09:38.589Z,36.00
2022-09-28T05:12:05.476Z,36.95
2022-09-28T05:14:32.521Z,39.88
2022-09-28T05:16:59.254Z,32.80
2022-09-28T05:19:27.938Z,37.97
2022-09-28T05:21:58.091Z,33.65
2022-09-28T05:24:24.961Z,34.85
2022-09-28T05:26:51.877Z,34.60
2022-09-28T05:29:18.951Z,35.05
2022-09-28T05:31:46.992Z,35.63
2022-09-28T05:34:14.368Z,31.98
2022-09-28T05:36:42.793Z,36.35
2022-09-28T05:39:09.747Z,30.80
2022-09-28T05:41:36.365Z,34.47
2022-09-28T05:44:03.696Z,31.05
2022-09-28T05:46:30.502Z,29.80
2022-09-28T05:48:59.881Z,29.02
2022-09-28T05:51:27.061Z,31.12
2022-09-28T05:54:00.662Z,29.42
2022-09-28T05:56:31.228Z,28.33
2022-09-28T05:58:58.717Z,30.50
2022-09-28T06:01:26.632Z,28.20
2022-09-28T06:03:53.993Z,32.10
2022-09-28T06:06:23.364Z,29.58
2022-09-28T06:08:50.176Z,30.77
2022-09-28T06:11:18.712Z,32.58
2022-09-28T06:13:46.506Z,31.65
2022-09-28T06:16:16.832Z,27.48
2022-09-28T06:18:44.643Z,28.90
2022-09-28T06:21:13.486Z,25.02
2022-09-28T06:23:42.754Z,30.98
2022-09-28T06:26:13.554Z,33.97
2022-09-28T06:28:40.391Z,33.75
2022-09-28T06:31:07.172Z,31.80
2022-09-28T06:33:35.805Z,30.65
2022-09-28T06:36:02.493Z,33.58
2022-09-28T06:38:29.198Z,29.33
2022-09-28T06:40:57.555Z,33.72
2022-09-28T06:43:25.714Z,36.47
2022-09-28T06:46:02.663Z,31.17
2022-09-28T06:48:30.983Z,32.88
2022-09-28T06:50:57.628Z,31.30
2022-09-28T06:53:24.350Z,29.83
2022-09-28T06:55:51.616Z,30.80
2022-09-28T06:58:20.013Z,33.15
2022-09-28T07:00:48.761Z,34.00
2022-09-28T07:03:18.485Z,31.37
2022-09-28T07:05:49.344Z,32.60
2022-09-28T07:08:18.041Z,30.95
2022-09-28T07:10:47.853Z,37.10
2022-09-28T07:13:42.373Z,31.17
2022-09-28T07:16:04.154Z,30.25
2022-09-28T07:18:31.344Z,30.90
2022-09-28T07:20:59.211Z,30.12
2022-09-28T07:23:29.590Z,31.33
2022-09-28T07:26:08.624Z,32.85
2022-09-28T07:28:37.192Z,29.52
2022-09-28T07:31:04.237Z,33.17
2022-09-28T07:33:32.676Z,33.42
2022-09-28T07:36:02.830Z,31.98
2022-09-28T07:38:30.086Z,34.75
2022-09-28T07:41:12.165Z,33.58
2022-09-28T07:43:41.444Z,33.85
2022-09-28T07:46:12.320Z,31.75
2022-09-28T07:48:41.928Z,31.42
2022-09-28T07:51:10.029Z,28.87
2022-09-28T07:53:38.446Z,30.40
2022-09-28T07:56:08.942Z,32.60
2022-09-28T07:58:37.766Z,32.80
2022-09-28T08:01:08.319Z,31.37
2022-09-28T08:03:35.634Z,28.40
2022-09-28T08:06:05.283Z,31.12
2022-09-28T08:08:34.374Z,31.90
2022-09-28T08:11:02.405Z,32.25
2022-09-28T08:13:31.100Z,29.87
2022-09-28T08:16:01.837Z,30.95
2022-09-28T08:18:29.767Z,30.02
2022-09-28T08:21:15.242Z,28.35
2022-09-28T08:23:42.593Z,28.12
2022-09-28T08:26:13.326Z,26.65
2022-09-28T08:28:44.957Z,25.17
2022-09-28T08:31:13.721Z,27.33
2022-09-28T08:33:44.826Z,26.67
2022-09-28T08:36:14.978Z,24.23
2022-09-28T08:38:43.763Z,24.35
2022-09-28T08:41:34.944Z,26.73
2022-09-28T08:44:11.107Z,24.42
2022-09-28T08:46:53.654Z,24.37
2022-09-28T08:49:44.107Z,23.67
2022-09-28T08:52:16.446Z,23.25
2022-09-28T08:55:02.120Z,21.77
2022-09-28T08:57:52.700Z,22.15
2022-09-28T09:00:31.167Z,23.27
2022-09-28T09:02:58.172Z,22.08
2022-09-28T09:05:47.336Z,22.17
2022-09-28T09:08:42.719Z,21.27
2022-09-28T09:11:29.743Z,19.80
2022-09-28T09:14:20.985Z,20.85
2022-09-28T09:17:06.196Z,21.95
2022-09-28T09:19:54.544Z,20.02
2022-09-28T09:22:40.886Z,19.73
2022-09-28T09:25:18.536Z,19.98
2022-09-28T09:28:02.102Z,20.85
2022-09-28T09:30:38.425Z,18.45
2022-09-28T09:33:33.574Z,20.55
2022-09-28T09:36:12.249Z,18.20
2022-09-28T09:38:50.084Z,17.65
2022-09-28T09:41:32.475Z,16.90
2022-09-28T09:44:52.002Z,18.92
2022-09-28T09:49:57.210Z,16.70
2022-09-28T09:55:19.315Z,17.77
2022-09-28T09:57:51.850Z,18.55
2022-09-28T10:00:24.005Z,17.15
2022-09-28T10:02:53.328Z,18.37
2022-09-28T10:05:25.488Z,20.17
2022-09-28T10:07:58.973Z,19.12
2022-09-28T10:10:51.693Z,18.12
2022-09-28T10:13:19.209Z,18.17
2022-09-28T10:15:51.322Z,19.40
2022-09-28T10:18:21.248Z,16.20
2022-09-28T10:20:51.447Z,19.45
2022-09-28T10:23:30.967Z,17.73
2022-09-28T10:26:05.887Z,20.17
2022-09-28T10:28:51.990Z,21.02
2022-09-28T10:31:48.969Z,22.73
2022-09-28T10:34:18.962Z,17.62
2022-09-28T10:36:50.729Z,18.12
2022-09-28T10:42:11.143Z,18.37
2022-09-28T10:44:53.206Z,16.83
2022-09-28T10:47:25.885Z,17.17
2022-09-28T10:49:55.267Z,17.67
2022-09-28T10:52:32.025Z,17.92
2022-09-28T10:54:59.690Z,16.40
2022-09-28T10:57:29.875Z,18.42
2022-09-28T10:59:56.863Z,17.45
2022-09-28T11:02:36.694Z,18.10
2022-09-28T11:05:07.012Z,18.80
2022-09-28T11:07:46.024Z,18.77
2022-09-28T11:10:22.867Z,19.77
2022-09-28T11:12:51.930Z,16.90
2022-09-28T11:15:21.873Z,19.87
2022-09-28T11:17:48.868Z,18.10
2022-09-28T11:20:27.806Z,16.48
2022-09-28T11:23:03.604Z,16.87
2022-09-28T11:25:31.386Z,16.90
2022-09-28T11:28:04.389Z,15.98
2022-09-28T11:30:51.882Z,17.83
2022-09-28T11:33:33.208Z,18.27
2022-09-28T11:36:17.950Z,16.83
2022-09-28T11:39:03.297Z,19.15
2022-09-28T11:42:16.450Z,19.00
2022-09-28T11:44:47.179Z,17.65
2022-09-28T11:49:56.179Z,18.67
2022-09-28T11:52:34.263Z,17.95
2022-09-28T11:55:23.721Z,18.27
2022-09-28T11:58:06.317Z,18.80
2022-09-28T12:03:13.654Z,19.20
2022-09-28T12:05:48.071Z,18.65
2022-09-28T12:08:27.672Z,18.85
2022-09-28T12:11:35.981Z,22.55
2022-09-28T12:14:10.161Z,17.80
2022-09-28T12:17:05.918Z,20.40
2022-09-28T12:19:41.562Z,23.17
2022-09-28T12:22:24.368Z,20.35
2022-09-28T12:24:54.558Z,23.55
2022-09-28T12:27:38.895Z,22.15
2022-09-28T12:30:13.211Z,23.80
2022-09-28T12:32:51.838Z,24.15
2022-09-28T12:35:44.768Z,21.85
2022-09-28T12:38:46.021Z,22.25
2022-09-28T12:41:34.715Z,21.62
2022-09-28T12:44:10.645Z,23.02
2022-09-28T12:47:09.764Z,21.00
2022-09-28T12:53:03.095Z,25.27
2022-09-28T12:56:02.250Z,22.15
2022-09-28T12:59:04.670Z,24.58
2022-09-28T13:02:01.030Z,23.75
2022-09-28T13:05:03.598Z,25.90
2022-09-28T13:10:44.371Z,23.98
2022-09-28T13:13:32.761Z,23.73
2022-09-28T13:15:59.711Z,24.33
2022-09-28T13:18:34.816Z,26.42
2022-09-28T13:21:21.802Z,24.90
2022-09-28T13:23:57.899Z,27.70
2022-09-28T13:26:44.841Z,27.87
2022-09-28T13:29:14.737Z,28.38
2022-09-28T13:31:57.589Z,29.98
2022-09-28T13:34:28.248Z,25.65
2022-09-28T13:37:20.022Z,26.13
2022-09-28T13:39:52.247Z,29.58
2022-09-28T13:42:52.689Z,40.92
2022-09-28T13:45:22.283Z,28.83
2022-09-28T13:47:58.653Z,29.83
2022-09-28T13:50:36.372Z,28.15
2022-09-28T13:53:27.218Z,29.40
2022-09-28T13:56:15.304Z,28.00
2022-09-28T13:58:52.028Z,29.73
2022-09-28T14:01:25.521Z,30.08
2022-09-28T14:04:14.081Z,31.55
2022-09-28T14:06:52.418Z,35.25
2022-09-28T14:09:40.315Z,33.83
2022-09-28T14:12:35.016Z,28.67
2022-09-28T14:15:02.619Z,28.23
2022-09-28T14:17:44.840Z,32.10
2022-09-28T14:20:17.690Z,31.98
2022-09-28T14:23:18.974Z,36.00
2022-09-28T14:26:02.784Z,30.85
2022-09-28T14:28:49.146Z,34.33
2022-09-28T14:31:27.532Z,33.88
2022-09-28T14:33:59.162Z,35.60
2022-09-28T14:36:54.459Z,34.70
2022-09-28T14:39:46.845Z,31.90
2022-09-28T14:42:18.228Z,26.80
2022-09-28T14:45:06.579Z,28.15
2022-09-28T14:47:36.120Z,28.80
2022-09-28T14:50:26.854Z,32.35
2022-09-28T14:53:05.203Z,25.73
2022-09-28T14:55:38.827Z,25.48
2022-09-28T14:58:08.982Z,25.77
2022-09-28T15:00:37.881Z,26.35
2022-09-28T15:03:11.418Z,23.87
2022-09-28T15:05:47.144Z,24.08
2022-09-28T15:08:14.164Z,25.25
2022-09-28T15:10:46.727Z,24.92
2022-09-28T15:13:28.190Z,24.83
2022-09-28T15:15:57.340Z,27.27
2022-09-28T15:18:55.430Z,24.20
2022-09-28T15:21:23.775Z,20.95
2022-09-28T15:23:50.899Z,25.20
2022-09-28T15:26:28.653Z,25.50
2022-09-28T15:28:55.918Z,29.33
2022-09-28T15:31:26.231Z,27.60
2022-09-28T15:34:11.785Z,26.27
2022-09-28T15:36:45.044Z,28.48
2022-09-28T15:39:30.080Z,27.95
2022-09-28T15:41:58.344Z,26.83
2022-09-28T15:44:32.992Z,26.08
2022-09-28T15:47:10.710Z,27.98
2022-09-28T15:49:46.392Z,30.20
2022-09-28T15:52:43.407Z,31.33
2022-09-28T15:55:28.142Z,30.95
2022-09-28T15:58:20.246Z,31.12
2022-09-28T16:00:49.371Z,35.45
2022-09-28T16:03:29.738Z,34.33
2022-09-28T16:05:59.678Z,31.17
2022-09-28T16:08:35.654Z,35.78
2022-09-28T16:11:12.380Z,38.13
2022-09-28T16:14:07.391Z,37.35
2022-09-28T16:16:46.671Z,36.33
2022-09-28T16:19:23.570Z,38.90
2022-09-28T16:21:53.065Z,40.42
2022-09-28T16:24:23.885Z,41.58
2022-09-28T16:27:25.235Z,40.72
2022-09-28T16:30:24.458Z,43.72
2022-09-28T16:33:04.005Z,43.78
2022-09-28T16:35:34.905Z,43.47
2022-09-28T16:38:16.519Z,45.35
2022-09-28T16:40:49.812Z,46.50
2022-09-28T16:43:31.003Z,48.25
2022-09-28T16:46:09.320Z,49.83
2022-09-28T16:48:40.764Z,43.33
2022-09-28T16:51:07.788Z,48.03
2022-09-28T16:53:54.755Z,45.60
2022-09-28T16:56:21.983Z,48.50
2022-09-28T16:58:50.218Z,49.08
2022-09-28T17:01:16.886Z,46.00
2022-09-28T17:03:46.716Z,46.33
2022-09-28T17:06:14.679Z,44.95
2022-09-28T17:08:41.637Z,44.42
2022-09-28T17:11:20.170Z,48.53
2022-09-28T17:13:50.236Z,50.88
2022-09-28T17:16:28.270Z,48.10
2022-09-28T17:19:05.752Z,34.95
2022-09-28T17:21:32.782Z,29.60
2022-09-28T17:23:59.434Z,22.98
2022-09-28T17:26:33.425Z,17.23
2022-09-28T17:29:02.001Z,14.60
2022-09-28T17:31:29.872Z,12.60
2022-09-28T17:33:56.919Z,15.20
2022-09-28T17:36:25.960Z,13.40
2022-09-28T17:38:52.774Z,11.98
2022-09-28T17:41:21.042Z,9.00
2022-09-28T17:43:49.272Z,7.62
2022-09-28T17:46:24.409Z,8.18
2022-09-28T17:48:51.942Z,10.57
2022-09-28T17:51:18.741Z,8.98
2022-09-28T17:53:45.468Z,8.05
2022-09-28T17:56:12.464Z,8.50
2022-09-28T17:58:39.149Z,8.38
2022-09-28T18:01:05.942Z,8.57
2022-09-28T18:03:33.047Z,7.93
2022-09-28T18:06:04.396Z,7.93
2022-09-28T18:08:31.302Z,8.77
2022-09-28T18:10:58.825Z,8.30
2022-09-28T18:13:25.581Z,8.75
2022-09-28T18:15:53.375Z,10.63
2022-09-28T18:18:21.316Z,9.82
2022-09-28T18:20:48.096Z,8.95
2022-09-28T18:23:14.687Z,8.90
2022-09-28T18:25:43.462Z,8.32
2022-09-28T18:28:11.198Z,9.13
2022-09-28T18:30:40.246Z,9.45
2022-09-28T18:33:07.784Z,8.85
2022-09-28T18:35:34.923Z,10.68
2022-09-28T18:38:05.188Z,9.25
2022-09-28T18:40:36.116Z,8.32
2022-09-28T18:43:03.388Z,11.35
2022-09-28T18:45:30.173Z,9.75
2022-09-28T18:47:57.904Z,10.52
2022-09-28T18:50:24.582Z,8.20
2022-09-28T18:52:51.272Z,8.45
2022-09-28T18:55:18.458Z,8.65
2022-09-28T18:57:46.394Z,9.55
2022-09-28T19:00:15.041Z,8.25
2022-09-28T19:02:42.365Z,8.95
2022-09-28T19:05:09.657Z,10.07
2022-09-28T19:07:36.426Z,8.45
2022-09-28T19:10:04.242Z,8.52
2022-09-28T19:12:32.089Z,9.77
2022-09-28T19:14:59.792Z,10.05
2022-09-28T19:17:27.153Z,7.72
2022-09-28T19:19:53.827Z,7.90
2022-09-28T19:22:20.548Z,8.10
2022-09-28T19:24:47.521Z,8.70
2022-09-28T19:27:14.183Z,9.38
2022-09-28T19:29:40.876Z,8.52
2022-09-28T19:32:07.845Z,8.30
2022-09-28T19:34:34.550Z,8.40
2022-09-28T19:37:03.894Z,7.60
2022-09-28T19:39:31.042Z,8.05
2022-09-28T19:41:59.769Z,8.20
2022-09-28T19:44:28.384Z,9.07
2022-09-28T19:47:07.108Z,9.20
2022-09-28T19:49:37.186Z,7.90
2022-09-28T19:52:13.235Z,8.73
2022-09-28T19:54:43.856Z,9.35
2022-09-28T19:57:12.598Z,11.10
2022-09-28T19:59:39.530Z,8.73
2022-09-28T20:02:07.925Z,9.02
2022-09-28T20:04:34.922Z,18.02
2022-09-28T20:07:02.142Z,10.68
2022-09-28T20:09:29.215Z,9.43
2022-09-28T20:11:56.153Z,8.40
2022-09-28T20:14:24.667Z,9.85
2022-09-28T20:16:54.981Z,8.63
2022-09-28T20:19:23.191Z,9.73
2022-09-28T20:21:50.243Z,8.38
2022-09-28T20:24:17.902Z,9.05
2022-09-28T20:26:46.102Z,8.15
2022-09-28T20:29:13.168Z,7.32
2022-09-28T20:31:40.235Z,8.52
2022-09-28T20:34:07.547Z,8.32
2022-09-28T20:36:34.622Z,8.68
2022-09-28T20:39:02.193Z,9.05
2022-09-28T20:41:34.791Z,9.50
2022-09-28T20:44:05.307Z,9.10
2022-09-28T20:46:34.705Z,11.05
2022-09-28T20:49:01.750Z,9.30
2022-09-28T20:51:28.541Z,8.82
2022-09-28T20:53:57.663Z,9.38
2022-09-28T20:56:28.350Z,8.35
2022-09-28T20:58:55.952Z,9.97
2022-09-28T21:01:23.749Z,13.25
2022-09-28T21:03:54.466Z,12.37
2022-09-28T21:06:23.614Z,11.38
2022-09-28T21:08:50.876Z,18.17
2022-09-28T21:11:19.419Z,10.55
2022-09-28T21:13:47.171Z,8.68
2022-09-28T21:16:16.226Z,8.35
2022-09-28T21:18:43.174Z,8.93
2022-09-28T21:21:14.017Z,8.70
2022-09-28T21:23:40.763Z,11.05
2022-09-28T21:26:09.637Z,8.10
2022-09-28T21:28:37.842Z,9.52
2022-09-28T21:31:07.064Z,8.10
2022-09-28T21:33:33.986Z,8.52
2022-09-28T21:36:02.164Z,9.88
2022-09-28T21:38:29.348Z,8.60
2022-09-28T21:40:57.512Z,10.45
2022-09-28T21:43:25.905Z,9.30
2022-09-28T21:45:54.233Z,10.55
2022-09-28T21:48:22.748Z,9.48
2022-09-28T21:51:03.320Z,10.23
2022-09-28T21:53:32.535Z,10.00
2022-09-28T21:56:00.798Z,8.48
2022-09-28T21:58:29.902Z,9.52
2022-09-28T22:01:16.826Z,7.90
2022-09-28T22:03:47.877Z,8.20
2022-09-28T22:06:17.057Z,9.02
2022-09-28T22:08:45.531Z,11.68
2022-09-28T22:11:15.452Z,8.40
2022-09-28T22:13:44.560Z,9.45
2022-09-28T22:16:12.771Z,8.07
2022-09-28T22:18:39.672Z,8.75
2022-09-28T22:21:12.568Z,8.40
2022-09-28T22:23:40.376Z,10.23
2022-09-28T22:26:27.366Z,8.50
2022-09-28T22:28:57.041Z,10.98
2022-09-28T22:31:29.796Z,8.85
2022-09-28T22:33:57.660Z,10.02
2022-09-28T22:36:25.916Z,8.82
2022-09-28T22:38:54.416Z,9.52
2022-09-28T22:41:21.674Z,9.57
2022-09-28T22:43:50.234Z,8.50
2022-09-28T22:46:19.424Z,8.75
2022-09-28T22:48:48.260Z,10.57
2022-09-28T22:51:15.823Z,9.05
2022-09-28T22:53:42.569Z,8.43
2022-09-28T22:56:13.498Z,11.02
2022-09-28T22:58:42.724Z,9.15
2022-09-28T23:01:17.238Z,9.23
2022-09-28T23:03:44.874Z,11.50
2022-09-28T23:06:13.676Z,9.77
2022-09-28T23:08:40.400Z,8.73
2022-09-28T23:11:07.193Z,11.07
2022-09-28T23:13:35.156Z,8.82
2022-09-28T23:16:06.778Z,8.40
2022-09-28T23:18:35.952Z,9.13
2022-09-28T23:21:06.217Z,9.88
2022-09-28T23:23:33.462Z,9.25
2022-09-28T23:26:00.483Z,8.50
2022-09-28T23:28:27.508Z,8.48
2022-09-28T23:30:54.605Z,8.52
2022-09-28T23:33:22.004Z,11.60
2022-09-28T23:35:49.733Z,8.48
2022-09-28T23:38:18.303Z,8.82
2022-09-28T23:40:46.649Z,9.00
2022-09-28T23:43:14.381Z,8.85
2022-09-28T23:45:42.883Z,8.50
2022-09-28T23:48:09.861Z,10.77
2022-09-28T23:50:36.768Z,10.60
2022-09-28T23:53:03.504Z,8.48
2022-09-28T23:55:30.103Z,9.35
2022-09-28T23:57:58.677Z,9.10
